sensor_id;sensor_type;location;lat;lon;timestamp;P1;durP1;ratioP1;P2;durP2;ratioP2
60344;SDS011;46188;52.324;8.032;2023-02-11T00:01:31;47.25;;;25.77;;
60344;SDS011;46188;52.324;8.032;2023-02-11T00:03:58;50.08;;;25.60;;
60344;SDS011;46188;52.324;8.032;2023-02-11T00:06:25;45.28;;;25.98;;
60344;SDS011;46188;52.324;8.032;2023-02-11T00:08:53;50.97;;;26.38;;
60344;SDS011;46188;52.324;8.032;2023-02-11T00:11:20;47.42;;;26.05;;
60344;SDS011;46188;52.324;8.032;2023-02-11T00:13:46;52.20;;;26.95;;
60344;SDS011;46188;52.324;8.032;2023-02-11T00:16:13;49.90;;;27.70;;
60344;SDS011;46188;52.324;8.032;2023-02-11T00:18:40;48.53;;;25.48;;
60344;SDS011;46188;52.324;8.032;2023-02-11T00:21:10;47.95;;;25.35;;
60344;SDS011;46188;52.324;8.032;2023-02-11T00:23:40;51.22;;;25.50;;
60344;SDS011;46188;52.324;8.032;2023-02-11T00:26:16;52.17;;;27.30;;
60344;SDS011;46188;52.324;8.032;2023-02-11T00:28:44;53.95;;;27.85;;
60344;SDS011;46188;52.324;8.032;2023-02-11T00:31:11;47.42;;;26.65;;
60344;SDS011;46188;52.324;8.032;2023-02-11T00:33:38;48.58;;;26.05;;
60344;SDS011;46188;52.324;8.032;2023-02-11T00:36:04;53.20;;;25.02;;
60344;SDS011;46188;52.324;8.032;2023-02-11T00:38:38;49.45;;;25.63;;
60344;SDS011;46188;52.324;8.032;2023-02-11T00:41:04;51.75;;;27.52;;
60344;SDS011;46188;52.324;8.032;2023-02-11T00:43:29;52.08;;;28.73;;
60344;SDS011;46188;52.324;8.032;2023-02-11T00:45:55;49.00;;;26.65;;
60344;SDS011;46188;52.324;8.032;2023-02-11T00:48:20;48.65;;;25.55;;
60344;SDS011;46188;52.324;8.032;2023-02-11T00:50:45;47.38;;;26.20;;
60344;SDS011;46188;52.324;8.032;2023-02-11T00:53:11;52.03;;;27.05;;
60344;SDS011;46188;52.324;8.032;2023-02-11T00:55:36;52.88;;;27.63;;
60344;SDS011;46188;52.324;8.032;2023-02-11T00:58:02;48.13;;;24.98;;
60344;SDS011;46188;52.324;8.032;2023-02-11T01:00:28;50.55;;;26.83;;
60344;SDS011;46188;52.324;8.032;2023-02-11T01:02:53;49.63;;;26.05;;
60344;SDS011;46188;52.324;8.032;2023-02-11T01:05:19;48.83;;;25.38;;
60344;SDS011;46188;52.324;8.032;2023-02-11T01:07:45;48.83;;;29.98;;
60344;SDS011;46188;52.324;8.032;2023-02-11T01:10:10;52.38;;;26.63;;
60344;SDS011;46188;52.324;8.032;2023-02-11T01:12:37;46.33;;;26.05;;
60344;SDS011;46188;52.324;8.032;2023-02-11T01:15:03;53.47;;;28.08;;
60344;SDS011;46188;52.324;8.032;2023-02-11T01:17:30;48.85;;;24.55;;
60344;SDS011;46188;52.324;8.032;2023-02-11T01:19:55;59.80;;;26.42;;
60344;SDS011;46188;52.324;8.032;2023-02-11T01:22:20;48.65;;;25.13;;
60344;SDS011;46188;52.324;8.032;2023-02-11T01:24:46;52.70;;;27.38;;
60344;SDS011;46188;52.324;8.032;2023-02-11T01:27:11;51.88;;;25.63;;
60344;SDS011;46188;52.324;8.032;2023-02-11T01:29:37;47.25;;;26.05;;
60344;SDS011;46188;52.324;8.032;2023-02-11T01:32:02;50.80;;;28.02;;
60344;SDS011;46188;52.324;8.032;2023-02-11T01:34:28;47.70;;;24.10;;
60344;SDS011;46188;52.324;8.032;2023-02-11T01:36:59;59.58;;;29.35;;
60344;SDS011;46188;52.324;8.032;2023-02-11T01:39:25;53.92;;;27.15;;
60344;SDS011;46188;52.324;8.032;2023-02-11T01:41:51;46.28;;;25.05;;
60344;SDS011;46188;52.324;8.032;2023-02-11T01:44:25;51.80;;;27.42;;
60344;SDS011;46188;52.324;8.032;2023-02-11T01:46:55;57.53;;;27.05;;
60344;SDS011;46188;52.324;8.032;2023-02-11T01:49:25;50.50;;;27.42;;
60344;SDS011;46188;52.324;8.032;2023-02-11T01:54:43;50.95;;;24.92;;
60344;SDS011;46188;52.324;8.032;2023-02-11T01:57:31;50.10;;;28.30;;
60344;SDS011;46188;52.324;8.032;2023-02-11T02:00:10;49.00;;;26.30;;
60344;SDS011;46188;52.324;8.032;2023-02-11T02:08:16;54.25;;;26.73;;
60344;SDS011;46188;52.324;8.032;2023-02-11T02:10:49;48.60;;;24.88;;
60344;SDS011;46188;52.324;8.032;2023-02-11T02:13:20;51.42;;;29.10;;
60344;SDS011;46188;52.324;8.032;2023-02-11T02:15:50;56.50;;;26.33;;
60344;SDS011;46188;52.324;8.032;2023-02-11T02:23:16;53.42;;;26.33;;
60344;SDS011;46188;52.324;8.032;2023-02-11T02:32:08;42.53;;;25.17;;
60344;SDS011;46188;52.324;8.032;2023-02-11T02:37:41;41.45;;;23.30;;
60344;SDS011;46188;52.324;8.032;2023-02-11T02:40:17;38.53;;;21.75;;
60344;SDS011;46188;52.324;8.032;2023-02-11T02:42:47;50.15;;;24.77;;
60344;SDS011;46188;52.324;8.032;2023-02-11T02:45:15;47.00;;;24.85;;
60344;SDS011;46188;52.324;8.032;2023-02-11T02:47:40;43.58;;;23.70;;
60344;SDS011;46188;52.324;8.032;2023-02-11T02:50:06;49.17;;;23.67;;
60344;SDS011;46188;52.324;8.032;2023-02-11T02:52:41;44.65;;;23.50;;
60344;SDS011;46188;52.324;8.032;2023-02-11T03:03:51;40.55;;;21.80;;
60344;SDS011;46188;52.324;8.032;2023-02-11T03:06:48;41.30;;;21.48;;
60344;SDS011;46188;52.324;8.032;2023-02-11T03:09:27;38.65;;;22.42;;
60344;SDS011;46188;52.324;8.032;2023-02-11T03:12:06;41.03;;;22.17;;
60344;SDS011;46188;52.324;8.032;2023-02-11T03:14:34;41.63;;;21.15;;
60344;SDS011;46188;52.324;8.032;2023-02-11T03:17:00;40.42;;;22.30;;
60344;SDS011;46188;52.324;8.032;2023-02-11T03:19:34;37.88;;;20.38;;
60344;SDS011;46188;52.324;8.032;2023-02-11T03:22:05;34.88;;;20.33;;
60344;SDS011;46188;52.324;8.032;2023-02-11T03:24:36;41.17;;;21.83;;
60344;SDS011;46188;52.324;8.032;2023-02-11T03:27:11;37.50;;;21.00;;
60344;SDS011;46188;52.324;8.032;2023-02-11T03:32:37;38.33;;;21.67;;
60344;SDS011;46188;52.324;8.032;2023-02-11T03:35:10;37.90;;;20.05;;
60344;SDS011;46188;52.324;8.032;2023-02-11T03:37:42;34.50;;;20.38;;
60344;SDS011;46188;52.324;8.032;2023-02-11T03:40:16;37.45;;;20.95;;
60344;SDS011;46188;52.324;8.032;2023-02-11T03:42:47;39.30;;;22.55;;
60344;SDS011;46188;52.324;8.032;2023-02-11T03:45:16;35.47;;;20.77;;
60344;SDS011;46188;52.324;8.032;2023-02-11T03:47:45;37.08;;;20.42;;
60344;SDS011;46188;52.324;8.032;2023-02-11T03:50:15;35.83;;;19.60;;
60344;SDS011;46188;52.324;8.032;2023-02-11T03:52:42;33.15;;;19.92;;
60344;SDS011;46188;52.324;8.032;2023-02-11T03:55:10;35.63;;;20.60;;
60344;SDS011;46188;52.324;8.032;2023-02-11T03:57:39;39.38;;;20.17;;
60344;SDS011;46188;52.324;8.032;2023-02-11T04:00:05;33.38;;;20.42;;
60344;SDS011;46188;52.324;8.032;2023-02-11T04:02:35;38.70;;;20.60;;
60344;SDS011;46188;52.324;8.032;2023-02-11T04:05:02;34.20;;;19.00;;
60344;SDS011;46188;52.324;8.032;2023-02-11T04:07:28;30.75;;;18.77;;
60344;SDS011;46188;52.324;8.032;2023-02-11T04:09:54;35.92;;;17.30;;
60344;SDS011;46188;52.324;8.032;2023-02-11T04:12:19;36.83;;;19.08;;
60344;SDS011;46188;52.324;8.032;2023-02-11T04:14:45;41.10;;;20.38;;
60344;SDS011;46188;52.324;8.032;2023-02-11T04:17:10;30.63;;;18.88;;
60344;SDS011;46188;52.324;8.032;2023-02-11T04:19:37;35.42;;;18.30;;
60344;SDS011;46188;52.324;8.032;2023-02-11T04:22:03;31.10;;;18.00;;
60344;SDS011;46188;52.324;8.032;2023-02-11T04:24:29;32.90;;;18.10;;
60344;SDS011;46188;52.324;8.032;2023-02-11T04:26:54;28.35;;;17.17;;
60344;SDS011;46188;52.324;8.032;2023-02-11T04:29:20;34.33;;;18.30;;
60344;SDS011;46188;52.324;8.032;2023-02-11T04:31:46;34.53;;;18.73;;
60344;SDS011;46188;52.324;8.032;2023-02-11T04:34:11;27.38;;;16.90;;
60344;SDS011;46188;52.324;8.032;2023-02-11T04:36:37;32.13;;;17.10;;
60344;SDS011;46188;52.324;8.032;2023-02-11T04:39:03;26.83;;;17.35;;
60344;SDS011;46188;52.324;8.032;2023-02-11T04:41:28;29.13;;;17.42;;
60344;SDS011;46188;52.324;8.032;2023-02-11T04:43:54;27.83;;;16.92;;
60344;SDS011;46188;52.324;8.032;2023-02-11T04:46:19;27.58;;;17.15;;
60344;SDS011;46188;52.324;8.032;2023-02-11T04:48:45;32.60;;;17.20;;
60344;SDS011;46188;52.324;8.032;2023-02-11T04:51:10;29.05;;;17.50;;
60344;SDS011;46188;52.324;8.032;2023-02-11T04:53:36;30.13;;;16.52;;
60344;SDS011;46188;52.324;8.032;2023-02-11T04:56:01;27.85;;;16.88;;
60344;SDS011;46188;52.324;8.032;2023-02-11T04:58:27;35.38;;;17.63;;
60344;SDS011;46188;52.324;8.032;2023-02-11T05:00:52;29.65;;;17.63;;
60344;SDS011;46188;52.324;8.032;2023-02-11T05:03:18;26.92;;;16.38;;
60344;SDS011;46188;52.324;8.032;2023-02-11T05:05:43;26.58;;;16.83;;
60344;SDS011;46188;52.324;8.032;2023-02-11T05:08:09;26.45;;;16.35;;
60344;SDS011;46188;52.324;8.032;2023-02-11T05:10:36;30.48;;;16.15;;
60344;SDS011;46188;52.324;8.032;2023-02-11T05:13:03;30.52;;;18.13;;
60344;SDS011;46188;52.324;8.032;2023-02-11T05:15:29;31.45;;;17.58;;
60344;SDS011;46188;52.324;8.032;2023-02-11T05:17:54;29.30;;;16.95;;
60344;SDS011;46188;52.324;8.032;2023-02-11T05:20:20;29.58;;;17.88;;
60344;SDS011;46188;52.324;8.032;2023-02-11T05:22:45;34.47;;;17.75;;
60344;SDS011;46188;52.324;8.032;2023-02-11T05:25:11;31.70;;;17.13;;
60344;SDS011;46188;52.324;8.032;2023-02-11T05:27:36;36.45;;;19.83;;
60344;SDS011;46188;52.324;8.032;2023-02-11T05:30:03;33.78;;;18.05;;
60344;SDS011;46188;52.324;8.032;2023-02-11T05:32:29;31.08;;;18.38;;
60344;SDS011;46188;52.324;8.032;2023-02-11T05:34:54;33.10;;;18.27;;
60344;SDS011;46188;52.324;8.032;2023-02-11T05:37:19;31.90;;;18.80;;
60344;SDS011;46188;52.324;8.032;2023-02-11T05:39:45;30.42;;;17.65;;
60344;SDS011;46188;52.324;8.032;2023-02-11T05:42:10;33.45;;;17.40;;
60344;SDS011;46188;52.324;8.032;2023-02-11T05:44:36;34.75;;;17.63;;
60344;SDS011;46188;52.324;8.032;2023-02-11T05:47:01;30.45;;;16.83;;
60344;SDS011;46188;52.324;8.032;2023-02-11T05:49:26;32.15;;;18.02;;
60344;SDS011;46188;52.324;8.032;2023-02-11T05:51:52;28.83;;;16.63;;
60344;SDS011;46188;52.324;8.032;2023-02-11T05:54:17;33.42;;;17.98;;
60344;SDS011;46188;52.324;8.032;2023-02-11T05:56:43;37.10;;;19.05;;
60344;SDS011;46188;52.324;8.032;2023-02-11T05:59:08;32.75;;;17.42;;
60344;SDS011;46188;52.324;8.032;2023-02-11T06:01:37;32.75;;;18.48;;
60344;SDS011;46188;52.324;8.032;2023-02-11T06:04:03;42.20;;;19.10;;
60344;SDS011;46188;52.324;8.032;2023-02-11T06:06:28;35.03;;;17.60;;
60344;SDS011;46188;52.324;8.032;2023-02-11T06:08:53;36.65;;;18.25;;
60344;SDS011;46188;52.324;8.032;2023-02-11T06:11:20;34.45;;;18.50;;
60344;SDS011;46188;52.324;8.032;2023-02-11T06:13:45;31.08;;;18.17;;
60344;SDS011;46188;52.324;8.032;2023-02-11T06:16:11;33.45;;;18.52;;
60344;SDS011;46188;52.324;8.032;2023-02-11T06:18:36;34.17;;;19.95;;
60344;SDS011;46188;52.324;8.032;2023-02-11T06:21:05;33.70;;;19.02;;
60344;SDS011;46188;52.324;8.032;2023-02-11T06:23:31;32.45;;;19.08;;
60344;SDS011;46188;52.324;8.032;2023-02-11T06:26:00;41.75;;;18.23;;
60344;SDS011;46188;52.324;8.032;2023-02-11T06:28:26;44.08;;;20.58;;
60344;SDS011;46188;52.324;8.032;2023-02-11T06:30:52;36.05;;;19.20;;
60344;SDS011;46188;52.324;8.032;2023-02-11T06:33:17;41.75;;;21.42;;
60344;SDS011;46188;52.324;8.032;2023-02-11T06:35:43;41.53;;;19.17;;
60344;SDS011;46188;52.324;8.032;2023-02-11T06:38:08;39.88;;;19.55;;
60344;SDS011;46188;52.324;8.032;2023-02-11T06:40:34;40.05;;;23.35;;
60344;SDS011;46188;52.324;8.032;2023-02-11T06:42:59;39.13;;;19.45;;
60344;SDS011;46188;52.324;8.032;2023-02-11T06:45:25;41.25;;;19.65;;
60344;SDS011;46188;52.324;8.032;2023-02-11T06:47:50;36.88;;;19.35;;
60344;SDS011;46188;52.324;8.032;2023-02-11T06:50:16;39.55;;;18.73;;
60344;SDS011;46188;52.324;8.032;2023-02-11T06:52:42;40.67;;;19.48;;
60344;SDS011;46188;52.324;8.032;2023-02-11T06:55:07;37.58;;;19.23;;
60344;SDS011;46188;52.324;8.032;2023-02-11T06:57:33;39.80;;;19.73;;
60344;SDS011;46188;52.324;8.032;2023-02-11T06:59:58;40.10;;;18.25;;
60344;SDS011;46188;52.324;8.032;2023-02-11T07:02:24;43.53;;;21.05;;
60344;SDS011;46188;52.324;8.032;2023-02-11T07:04:49;40.13;;;20.90;;
60344;SDS011;46188;52.324;8.032;2023-02-11T07:07:14;37.33;;;19.13;;
60344;SDS011;46188;52.324;8.032;2023-02-11T07:09:40;37.22;;;20.75;;
60344;SDS011;46188;52.324;8.032;2023-02-11T07:12:05;36.28;;;19.38;;
60344;SDS011;46188;52.324;8.032;2023-02-11T07:14:33;36.03;;;19.58;;
60344;SDS011;46188;52.324;8.032;2023-02-11T07:16:59;37.72;;;19.35;;
60344;SDS011;46188;52.324;8.032;2023-02-11T07:19:24;33.50;;;18.55;;
60344;SDS011;46188;52.324;8.032;2023-02-11T07:21:50;32.60;;;18.65;;
60344;SDS011;46188;52.324;8.032;2023-02-11T07:24:15;40.28;;;20.17;;
60344;SDS011;46188;52.324;8.032;2023-02-11T07:26:41;31.33;;;17.33;;
60344;SDS011;46188;52.324;8.032;2023-02-11T07:29:06;37.20;;;18.77;;
60344;SDS011;46188;52.324;8.032;2023-02-11T07:31:32;34.63;;;17.80;;
60344;SDS011;46188;52.324;8.032;2023-02-11T07:33:59;43.85;;;20.15;;
60344;SDS011;46188;52.324;8.032;2023-02-11T07:36:26;36.25;;;19.40;;
60344;SDS011;46188;52.324;8.032;2023-02-11T07:38:52;39.30;;;19.80;;
60344;SDS011;46188;52.324;8.032;2023-02-11T07:41:18;39.55;;;19.17;;
60344;SDS011;46188;52.324;8.032;2023-02-11T07:43:45;42.42;;;21.05;;
60344;SDS011;46188;52.324;8.032;2023-02-11T07:46:45;35.75;;;17.60;;
60344;SDS011;46188;52.324;8.032;2023-02-11T07:49:07;39.08;;;19.00;;
60344;SDS011;46188;52.324;8.032;2023-02-11T07:51:33;36.35;;;18.67;;
60344;SDS011;46188;52.324;8.032;2023-02-11T07:53:58;36.30;;;18.45;;
60344;SDS011;46188;52.324;8.032;2023-02-11T07:56:24;40.38;;;19.65;;
60344;SDS011;46188;52.324;8.032;2023-02-11T07:58:50;41.10;;;18.85;;
60344;SDS011;46188;52.324;8.032;2023-02-11T08:01:17;45.63;;;22.98;;
60344;SDS011;46188;52.324;8.032;2023-02-11T08:03:48;45.10;;;21.48;;
60344;SDS011;46188;52.324;8.032;2023-02-11T08:06:15;32.30;;;18.55;;
60344;SDS011;46188;52.324;8.032;2023-02-11T08:08:42;44.08;;;21.88;;
60344;SDS011;46188;52.324;8.032;2023-02-11T08:11:09;42.13;;;20.80;;
60344;SDS011;46188;52.324;8.032;2023-02-11T08:13:39;43.88;;;20.27;;
60344;SDS011;46188;52.324;8.032;2023-02-11T08:16:06;37.38;;;20.85;;
60344;SDS011;46188;52.324;8.032;2023-02-11T08:18:32;41.88;;;21.50;;
60344;SDS011;46188;52.324;8.032;2023-02-11T08:21:03;47.13;;;22.30;;
60344;SDS011;46188;52.324;8.032;2023-02-11T08:23:32;41.00;;;20.85;;
60344;SDS011;46188;52.324;8.032;2023-02-11T08:26:04;37.20;;;20.13;;
60344;SDS011;46188;52.324;8.032;2023-02-11T08:28:33;40.60;;;20.65;;
60344;SDS011;46188;52.324;8.032;2023-02-11T08:31:04;40.67;;;20.70;;
60344;SDS011;46188;52.324;8.032;2023-02-11T08:33:30;46.95;;;20.35;;
60344;SDS011;46188;52.324;8.032;2023-02-11T08:35:56;45.60;;;23.23;;
60344;SDS011;46188;52.324;8.032;2023-02-11T08:38:21;46.15;;;21.10;;
60344;SDS011;46188;52.324;8.032;2023-02-11T08:40:47;49.38;;;21.48;;
60344;SDS011;46188;52.324;8.032;2023-02-11T08:43:13;46.03;;;22.00;;
60344;SDS011;46188;52.324;8.032;2023-02-11T08:45:38;51.58;;;22.45;;
60344;SDS011;46188;52.324;8.032;2023-02-11T08:48:04;41.38;;;22.05;;
60344;SDS011;46188;52.324;8.032;2023-02-11T08:50:29;49.92;;;22.67;;
60344;SDS011;46188;52.324;8.032;2023-02-11T08:52:56;40.67;;;21.48;;
60344;SDS011;46188;52.324;8.032;2023-02-11T08:55:21;44.33;;;21.75;;
60344;SDS011;46188;52.324;8.032;2023-02-11T08:57:47;43.17;;;22.48;;
60344;SDS011;46188;52.324;8.032;2023-02-11T09:00:12;50.63;;;22.80;;
60344;SDS011;46188;52.324;8.032;2023-02-11T09:02:38;37.28;;;21.20;;
60344;SDS011;46188;52.324;8.032;2023-02-11T09:05:04;51.17;;;25.35;;
60344;SDS011;46188;52.324;8.032;2023-02-11T09:07:29;37.28;;;19.80;;
60344;SDS011;46188;52.324;8.032;2023-02-11T09:09:55;45.60;;;21.08;;
60344;SDS011;46188;52.324;8.032;2023-02-11T09:12:20;44.30;;;22.35;;
60344;SDS011;46188;52.324;8.032;2023-02-11T09:14:45;43.20;;;21.90;;
60344;SDS011;46188;52.324;8.032;2023-02-11T09:17:11;43.42;;;21.35;;
60344;SDS011;46188;52.324;8.032;2023-02-11T09:19:36;41.58;;;22.38;;
60344;SDS011;46188;52.324;8.032;2023-02-11T09:22:02;42.13;;;21.42;;
60344;SDS011;46188;52.324;8.032;2023-02-11T09:24:27;46.28;;;21.52;;
60344;SDS011;46188;52.324;8.032;2023-02-11T09:26:53;49.80;;;23.98;;
60344;SDS011;46188;52.324;8.032;2023-02-11T09:29:18;52.80;;;23.58;;
60344;SDS011;46188;52.324;8.032;2023-02-11T09:31:43;49.63;;;23.17;;
60344;SDS011;46188;52.324;8.032;2023-02-11T09:34:09;48.95;;;24.83;;
60344;SDS011;46188;52.324;8.032;2023-02-11T09:36:36;53.35;;;25.20;;
60344;SDS011;46188;52.324;8.032;2023-02-11T09:39:04;43.05;;;22.88;;
60344;SDS011;46188;52.324;8.032;2023-02-11T09:41:34;48.72;;;22.83;;
60344;SDS011;46188;52.324;8.032;2023-02-11T09:44:19;52.38;;;24.90;;
60344;SDS011;46188;52.324;8.032;2023-02-11T09:46:59;47.28;;;22.08;;
60344;SDS011;46188;52.324;8.032;2023-02-11T09:57:36;50.90;;;24.45;;
60344;SDS011;46188;52.324;8.032;2023-02-11T10:00:11;55.00;;;24.92;;
60344;SDS011;46188;52.324;8.032;2023-02-11T10:06:00;48.22;;;23.65;;
60344;SDS011;46188;52.324;8.032;2023-02-11T10:11:22;53.08;;;24.60;;
60344;SDS011;46188;52.324;8.032;2023-02-11T10:22:27;61.45;;;25.40;;
60344;SDS011;46188;52.324;8.032;2023-02-11T10:24:59;54.40;;;22.07;;
60344;SDS011;46188;52.324;8.032;2023-02-11T10:27:35;59.40;;;26.60;;
60344;SDS011;46188;52.324;8.032;2023-02-11T10:30:05;65.32;;;27.80;;
60344;SDS011;46188;52.324;8.032;2023-02-11T10:32:44;56.13;;;26.42;;
60344;SDS011;46188;52.324;8.032;2023-02-11T10:35:23;52.50;;;24.63;;
60344;SDS011;46188;52.324;8.032;2023-02-11T10:37:49;48.50;;;25.15;;
60344;SDS011;46188;52.324;8.032;2023-02-11T10:42:49;54.88;;;30.10;;
60344;SDS011;46188;52.324;8.032;2023-02-11T10:45:18;54.63;;;25.98;;
60344;SDS011;46188;52.324;8.032;2023-02-11T10:47:57;49.65;;;23.77;;
60344;SDS011;46188;52.324;8.032;2023-02-11T10:50:28;57.10;;;26.17;;
60344;SDS011;46188;52.324;8.032;2023-02-11T10:53:11;48.40;;;23.90;;
60344;SDS011;46188;52.324;8.032;2023-02-11T10:56:03;55.58;;;24.98;;
60344;SDS011;46188;52.324;8.032;2023-02-11T11:01:42;50.47;;;25.85;;
60344;SDS011;46188;52.324;8.032;2023-02-11T11:06:55;54.92;;;26.30;;
60344;SDS011;46188;52.324;8.032;2023-02-11T11:09:27;57.97;;;26.38;;
60344;SDS011;46188;52.324;8.032;2023-02-11T11:11:54;59.40;;;27.42;;
60344;SDS011;46188;52.324;8.032;2023-02-11T11:14:20;58.58;;;30.52;;
60344;SDS011;46188;52.324;8.032;2023-02-11T11:16:52;54.85;;;25.75;;
60344;SDS011;46188;52.324;8.032;2023-02-11T11:19:22;60.92;;;27.60;;
60344;SDS011;46188;52.324;8.032;2023-02-11T11:21:50;50.80;;;25.85;;
60344;SDS011;46188;52.324;8.032;2023-02-11T11:24:18;47.25;;;23.20;;
60344;SDS011;46188;52.324;8.032;2023-02-11T11:26:55;50.45;;;24.92;;
60344;SDS011;46188;52.324;8.032;2023-02-11T11:29:32;50.72;;;24.23;;
60344;SDS011;46188;52.324;8.032;2023-02-11T11:32:04;50.38;;;23.30;;
60344;SDS011;46188;52.324;8.032;2023-02-11T11:34:47;45.85;;;24.45;;
60344;SDS011;46188;52.324;8.032;2023-02-11T11:37:22;47.47;;;23.38;;
60344;SDS011;46188;52.324;8.032;2023-02-11T11:42:33;46.38;;;23.73;;
60344;SDS011;46188;52.324;8.032;2023-02-11T11:53:20;45.72;;;23.40;;
60344;SDS011;46188;52.324;8.032;2023-02-11T11:55:49;46.17;;;22.95;;
60344;SDS011;46188;52.324;8.032;2023-02-11T11:58:21;43.20;;;24.90;;
60344;SDS011;46188;52.324;8.032;2023-02-11T12:06:08;43.60;;;20.67;;
60344;SDS011;46188;52.324;8.032;2023-02-11T12:14:08;35.25;;;20.90;;
60344;SDS011;46188;52.324;8.032;2023-02-11T12:21:54;47.75;;;22.02;;
60344;SDS011;46188;52.324;8.032;2023-02-11T12:27:49;37.17;;;21.23;;
60344;SDS011;46188;52.324;8.032;2023-02-11T12:33:15;39.00;;;21.95;;
60344;SDS011;46188;52.324;8.032;2023-02-11T12:35:47;36.67;;;19.50;;
60344;SDS011;46188;52.324;8.032;2023-02-11T12:56:08;31.17;;;19.33;;
60344;SDS011;46188;52.324;8.032;2023-02-11T12:58:41;36.78;;;19.38;;
60344;SDS011;46188;52.324;8.032;2023-02-11T13:01:09;34.22;;;18.48;;
60344;SDS011;46188;52.324;8.032;2023-02-11T13:03:44;31.95;;;18.33;;
60344;SDS011;46188;52.324;8.032;2023-02-11T13:06:19;33.90;;;18.38;;
60344;SDS011;46188;52.324;8.032;2023-02-11T13:09:01;29.25;;;17.33;;
60344;SDS011;46188;52.324;8.032;2023-02-11T13:11:49;33.42;;;17.80;;
60344;SDS011;46188;52.324;8.032;2023-02-11T13:14:25;34.63;;;18.30;;
60344;SDS011;46188;52.324;8.032;2023-02-11T13:16:55;38.65;;;18.23;;
60344;SDS011;46188;52.324;8.032;2023-02-11T13:24:46;32.80;;;17.08;;
60344;SDS011;46188;52.324;8.032;2023-02-11T13:35:37;34.65;;;19.30;;
60344;SDS011;46188;52.324;8.032;2023-02-11T13:38:15;28.00;;;16.98;;
60344;SDS011;46188;52.324;8.032;2023-02-11T13:40:41;36.95;;;18.38;;
60344;SDS011;46188;52.324;8.032;2023-02-11T13:43:40;31.45;;;16.67;;
60344;SDS011;46188;52.324;8.032;2023-02-11T13:46:09;35.33;;;17.65;;
60344;SDS011;46188;52.324;8.032;2023-02-11T13:48:38;32.90;;;17.75;;
60344;SDS011;46188;52.324;8.032;2023-02-11T13:51:12;29.73;;;16.77;;
60344;SDS011;46188;52.324;8.032;2023-02-11T13:59:00;30.33;;;17.77;;
60344;SDS011;46188;52.324;8.032;2023-02-11T14:04:31;31.35;;;16.90;;
60344;SDS011;46188;52.324;8.032;2023-02-11T14:13:23;29.50;;;18.02;;
60344;SDS011;46188;52.324;8.032;2023-02-11T14:16:21;27.60;;;16.35;;
60344;SDS011;46188;52.324;8.032;2023-02-11T14:21:14;28.92;;;17.30;;
60344;SDS011;46188;52.324;8.032;2023-02-11T14:23:44;29.23;;;16.92;;
60344;SDS011;46188;52.324;8.032;2023-02-11T14:31:44;31.17;;;16.65;;
60344;SDS011;46188;52.324;8.032;2023-02-11T14:42:29;25.33;;;16.05;;
60344;SDS011;46188;52.324;8.032;2023-02-11T14:44:55;32.47;;;16.58;;
60344;SDS011;46188;52.324;8.032;2023-02-11T14:47:35;26.08;;;16.52;;
60344;SDS011;46188;52.324;8.032;2023-02-11T14:50:11;27.33;;;16.23;;
60344;SDS011;46188;52.324;8.032;2023-02-11T14:52:41;30.10;;;16.98;;
60344;SDS011;46188;52.324;8.032;2023-02-11T14:57:33;22.85;;;13.73;;
60344;SDS011;46188;52.324;8.032;2023-02-11T15:00:20;24.42;;;13.80;;
60344;SDS011;46188;52.324;8.032;2023-02-11T15:02:45;23.50;;;14.55;;
60344;SDS011;46188;52.324;8.032;2023-02-11T15:05:22;23.00;;;14.23;;
60344;SDS011;46188;52.324;8.032;2023-02-11T15:08:00;22.33;;;14.10;;
60344;SDS011;46188;52.324;8.032;2023-02-11T15:10:29;24.80;;;14.80;;
60344;SDS011;46188;52.324;8.032;2023-02-11T15:13:19;24.42;;;12.90;;
60344;SDS011;46188;52.324;8.032;2023-02-11T15:15:53;21.42;;;12.15;;
60344;SDS011;46188;52.324;8.032;2023-02-11T15:18:22;22.50;;;13.02;;
60344;SDS011;46188;52.324;8.032;2023-02-11T15:20:54;21.10;;;12.73;;
60344;SDS011;46188;52.324;8.032;2023-02-11T15:23:24;22.77;;;13.15;;
60344;SDS011;46188;52.324;8.032;2023-02-11T15:25:53;23.75;;;12.38;;
60344;SDS011;46188;52.324;8.032;2023-02-11T15:28:25;21.92;;;14.20;;
60344;SDS011;46188;52.324;8.032;2023-02-11T15:30:55;22.65;;;13.85;;
60344;SDS011;46188;52.324;8.032;2023-02-11T15:33:26;23.50;;;12.43;;
60344;SDS011;46188;52.324;8.032;2023-02-11T15:35:54;22.88;;;14.50;;
60344;SDS011;46188;52.324;8.032;2023-02-11T15:38:21;19.98;;;12.55;;
60344;SDS011;46188;52.324;8.032;2023-02-11T15:41:06;30.25;;;14.25;;
60344;SDS011;46188;52.324;8.032;2023-02-11T15:43:45;21.60;;;13.73;;
60344;SDS011;46188;52.324;8.032;2023-02-11T15:46:13;18.60;;;13.82;;
60344;SDS011;46188;52.324;8.032;2023-02-11T15:48:47;24.67;;;13.90;;
60344;SDS011;46188;52.324;8.032;2023-02-11T15:51:22;25.77;;;14.73;;
60344;SDS011;46188;52.324;8.032;2023-02-11T15:54:33;19.65;;;13.57;;
60344;SDS011;46188;52.324;8.032;2023-02-11T15:56:54;20.67;;;14.00;;
60344;SDS011;46188;52.324;8.032;2023-02-11T16:02:13;24.33;;;14.63;;
60344;SDS011;46188;52.324;8.032;2023-02-11T16:04:49;22.95;;;14.15;;
60344;SDS011;46188;52.324;8.032;2023-02-11T16:10:18;24.77;;;15.00;;
60344;SDS011;46188;52.324;8.032;2023-02-11T16:12:51;24.88;;;14.73;;
60344;SDS011;46188;52.324;8.032;2023-02-11T16:18:02;26.60;;;14.73;;
60344;SDS011;46188;52.324;8.032;2023-02-11T16:20:37;20.83;;;12.82;;
60344;SDS011;46188;52.324;8.032;2023-02-11T16:23:03;23.23;;;14.90;;
60344;SDS011;46188;52.324;8.032;2023-02-11T16:25:31;21.25;;;13.52;;
60344;SDS011;46188;52.324;8.032;2023-02-11T16:27:59;23.70;;;14.48;;
60344;SDS011;46188;52.324;8.032;2023-02-11T16:30:31;23.38;;;14.43;;
60344;SDS011;46188;52.324;8.032;2023-02-11T16:32:58;25.08;;;15.63;;
60344;SDS011;46188;52.324;8.032;2023-02-11T16:35:24;25.80;;;15.30;;
60344;SDS011;46188;52.324;8.032;2023-02-11T16:37:50;23.25;;;14.93;;
60344;SDS011;46188;52.324;8.032;2023-02-11T16:40:15;33.90;;;20.55;;
60344;SDS011;46188;52.324;8.032;2023-02-11T16:42:41;20.75;;;13.30;;
60344;SDS011;46188;52.324;8.032;2023-02-11T16:45:07;18.58;;;12.35;;
60344;SDS011;46188;52.324;8.032;2023-02-11T16:47:33;20.38;;;12.10;;
60344;SDS011;46188;52.324;8.032;2023-02-11T16:49:59;17.65;;;12.18;;
60344;SDS011;46188;52.324;8.032;2023-02-11T16:52:25;20.58;;;12.15;;
60344;SDS011;46188;52.324;8.032;2023-02-11T16:54:51;18.90;;;11.20;;
60344;SDS011;46188;52.324;8.032;2023-02-11T16:57:18;18.67;;;11.88;;
60344;SDS011;46188;52.324;8.032;2023-02-11T16:59:45;20.77;;;11.30;;
60344;SDS011;46188;52.324;8.032;2023-02-11T17:02:24;17.88;;;11.63;;
60344;SDS011;46188;52.324;8.032;2023-02-11T17:04:52;20.65;;;11.52;;
60344;SDS011;46188;52.324;8.032;2023-02-11T17:07:18;21.27;;;10.77;;
60344;SDS011;46188;52.324;8.032;2023-02-11T17:09:44;18.05;;;10.73;;
60344;SDS011;46188;52.324;8.032;2023-02-11T17:12:09;21.48;;;11.48;;
60344;SDS011;46188;52.324;8.032;2023-02-11T17:14:35;16.92;;;10.57;;
60344;SDS011;46188;52.324;8.032;2023-02-11T17:17:00;16.27;;;9.75;;
60344;SDS011;46188;52.324;8.032;2023-02-11T17:19:26;15.20;;;9.95;;
60344;SDS011;46188;52.324;8.032;2023-02-11T17:21:51;13.88;;;9.43;;
60344;SDS011;46188;52.324;8.032;2023-02-11T17:24:17;12.85;;;8.32;;